createdAt,value
2022-08-17T00:02:04.954Z,97806.64
2022-08-17T00:07:17.428Z,97806.23
2022-08-17T00:12:42.971Z,97805.24
2022-08-17T00:17:48.486Z,97810.14
2022-08-17T00:23:02.379Z,97801.57
2022-08-17T00:28:06.890Z,97802.45
2022-08-17T00:33:16.446Z,97805.10
2022-08-17T00:38:21.330Z,97805.53
2022-08-17T00:43:29.665Z,97812.27
2022-08-17T00:48:33.886Z,97812.06
2022-08-17T00:53:46.106Z,97812.88
2022-08-17T00:58:52.368Z,97815.17
2022-08-17T01:03:59.997Z,97817.30
2022-08-17T01:09:05.016Z,97809.44
2022-08-17T01:14:09.607Z,97811.64
2022-08-17T01:19:16.128Z,97806.85
2022-08-17T01:24:20.246Z,97808.65
2022-08-17T01:29:24.906Z,97808.52
2022-08-17T01:34:42.892Z,97809.30
2022-08-17T01:39:49.804Z,97804.82
2022-08-17T01:44:56.382Z,97806.89
2022-08-17T01:50:04.897Z,97813.23
2022-08-17T01:55:10.295Z,97820.33
2022-08-17T02:00:15.446Z,97827.48
2022-08-17T02:05:20.466Z,97830.45
2022-08-17T02:10:25.117Z,97830.42
2022-08-17T02:15:38.836Z,97828.91
2022-08-17T02:20:43.061Z,97827.95
2022-08-17T02:25:48.345Z,97828.12
2022-08-17T02:31:02.541Z,97831.27
2022-08-17T02:36:09.226Z,97831.90
2022-08-17T02:41:13.536Z,97828.52
2022-08-17T02:46:19.326Z,97828.48
2022-08-17T02:51:23.356Z,97828.55
2022-08-17T02:56:27.687Z,97829.41
2022-08-17T03:01:31.587Z,97826.20
2022-08-17T03:06:35.806Z,97826.91
2022-08-17T03:11:40.116Z,97829.16
2022-08-17T03:16:44.276Z,97831.90
2022-08-17T03:21:54.962Z,97838.59
2022-08-17T03:27:00.396Z,97835.62
2022-08-17T03:32:11.606Z,97840.92
2022-08-17T03:37:16.088Z,97841.43
2022-08-17T03:42:31.870Z,97847.79
2022-08-17T03:47:55.478Z,97848.48
2022-08-17T03:53:17.726Z,97852.41
2022-08-17T03:58:22.268Z,97853.00
2022-08-17T04:03:26.916Z,97859.98
2022-08-17T04:08:31.246Z,97865.75
2022-08-17T04:13:35.475Z,97869.22
2022-08-17T04:18:40.016Z,97874.80
2022-08-17T04:23:44.250Z,97874.04
2022-08-17T04:28:48.432Z,97879.05
2022-08-17T04:33:52.915Z,97875.14
2022-08-17T04:38:58.283Z,97878.64
2022-08-17T04:44:04.246Z,97884.09
2022-08-17T04:49:09.331Z,97887.81
2022-08-17T04:54:14.466Z,97890.30
2022-08-17T04:59:20.181Z,97890.52
2022-08-17T05:04:34.539Z,97888.02
2022-08-17T05:09:39.448Z,97889.89
2022-08-17T05:14:43.519Z,97896.40
2022-08-17T05:19:51.446Z,97901.63
2022-08-17T05:24:55.989Z,97902.66
2022-08-17T05:30:00.366Z,97905.94
2022-08-17T05:35:05.084Z,97907.14
2022-08-17T05:40:10.263Z,97912.54
2022-08-17T05:45:15.993Z,97915.64
2022-08-17T05:50:29.815Z,97911.61
2022-08-17T05:55:37.727Z,97909.02
2022-08-17T06:00:50.288Z,97907.81
2022-08-17T06:06:01.029Z,97909.38
2022-08-17T06:11:09.487Z,97902.41
2022-08-17T06:16:33.309Z,97902.23
2022-08-17T06:21:41.708Z,97899.82
2022-08-17T06:26:46.349Z,97892.04
2022-08-17T06:31:50.820Z,97893.22
2022-08-17T06:36:59.141Z,97897.61
2022-08-17T06:42:10.856Z,97894.54
2022-08-17T06:47:36.619Z,97893.50
2022-08-17T06:52:47.114Z,97898.46
2022-08-17T06:58:01.904Z,97896.75
2022-08-17T07:03:15.530Z,97901.83
2022-08-17T07:08:27.716Z,97905.84
2022-08-17T07:13:41.930Z,97906.72
2022-08-17T07:18:46.667Z,97909.16
2022-08-17T07:24:00.414Z,97912.80
2022-08-17T07:29:05.749Z,97918.85
2022-08-17T07:34:14.311Z,97916.51
2022-08-17T07:39:26.633Z,97910.19
2022-08-17T07:44:31.107Z,97908.12
2022-08-17T07:49:37.131Z,97914.17
2022-08-17T07:54:42.489Z,97915.11
2022-08-17T08:00:06.199Z,97919.20
2022-08-17T08:05:55.378Z,97923.36
2022-08-17T08:37:12.523Z,97918.45
2022-08-17T08:42:10.586Z,97914.90
2022-08-17T08:47:20.869Z,97906.91
2022-08-17T08:52:37.517Z,97911.71
2022-08-17T08:57:49.030Z,97913.34
2022-08-17T09:03:37.632Z,97916.64
2022-08-17T09:09:00.661Z,97912.08
2022-08-17T09:14:21.586Z,97916.71
2022-08-17T09:19:36.776Z,97918.80
2022-08-17T09:24:45.949Z,97919.83
2022-08-17T09:29:58.171Z,97925.84
2022-08-17T09:35:07.399Z,97927.86
2022-08-17T09:40:19.265Z,97921.50
2022-08-17T09:45:38.157Z,97922.23
2022-08-17T09:51:03.335Z,97925.30
2022-08-17T09:56:29.816Z,97924.09
2022-08-17T10:01:39.020Z,97926.98
2022-08-17T10:06:50.495Z,97915.95
2022-08-17T10:12:20.848Z,97910.39
2022-08-17T10:17:30.097Z,97909.21
2022-08-17T10:22:58.468Z,97912.06
2022-08-17T10:28:09.819Z,97911.72
2022-08-17T10:33:29.008Z,97910.13
2022-08-17T10:38:46.456Z,97913.53
2022-08-17T10:44:38.730Z,97915.25
2022-08-17T10:49:30.987Z,97916.63
2022-08-17T10:54:42.101Z,97914.68
2022-08-17T10:59:53.031Z,97914.81
2022-08-17T11:05:25.380Z,97911.87
2022-08-17T11:10:49.943Z,97904.20
2022-08-17T11:16:08.519Z,97906.00
2022-08-17T11:21:31.628Z,97903.14
2022-08-17T11:26:41.989Z,97909.77
2022-08-17T11:32:00.196Z,97907.77
2022-08-17T11:37:35.648Z,97911.54
2022-08-17T11:42:52.081Z,97911.85
2022-08-17T11:48:34.737Z,97904.91
2022-08-17T11:54:30.570Z,97898.79
2022-08-17T11:59:46.687Z,97897.52
2022-08-17T12:05:04.588Z,97894.04
2022-08-17T12:10:17.669Z,97889.61
2022-08-17T12:15:29.670Z,97886.64
2022-08-17T12:20:38.707Z,97886.23
2022-08-17T12:25:49.898Z,97883.48
2022-08-17T12:31:04.647Z,97884.80
2022-08-17T12:36:15.585Z,97879.70
2022-08-17T12:41:32.786Z,97873.62
2022-08-17T12:46:49.875Z,97881.73
2022-08-17T12:52:04.615Z,97886.45
2022-08-17T12:57:14.375Z,97886.23
2022-08-17T13:02:32.608Z,97883.72
2022-08-17T13:07:44.351Z,97887.29
2022-08-17T13:12:51.448Z,97883.45
2022-08-17T13:17:59.655Z,97878.82
2022-08-17T13:23:12.159Z,97873.88
2022-08-17T13:28:30.639Z,97871.44
2022-08-17T13:33:44.593Z,97874.55
2022-08-17T13:38:52.346Z,97875.95
2022-08-17T13:43:58.936Z,97877.15
2022-08-17T13:49:07.121Z,97871.92
2022-08-17T13:54:25.671Z,97873.98
2022-08-17T13:59:52.965Z,97878.73
2022-08-17T14:05:02.505Z,97883.00
2022-08-17T14:10:15.457Z,97881.44
2022-08-17T14:15:23.607Z,97873.18
2022-08-17T14:20:50.098Z,97874.95
2022-08-17T14:25:56.758Z,97875.26
2022-08-17T14:31:03.810Z,97881.89
2022-08-17T14:36:10.736Z,97877.86
2022-08-17T14:41:21.987Z,97873.84
2022-08-17T14:46:29.457Z,97879.23
2022-08-17T14:51:36.114Z,97886.95
2022-08-17T14:56:54.220Z,97887.21
2022-08-17T15:02:17.207Z,97882.36
2022-08-17T15:07:26.134Z,97879.76
2022-08-17T15:12:38.456Z,97874.14
2022-08-17T15:17:46.175Z,97879.65
2022-08-17T15:22:55.679Z,97882.45
2022-08-17T15:28:03.429Z,97882.61
2022-08-17T15:33:14.038Z,97885.52
2022-08-17T15:38:23.218Z,97884.54
2022-08-17T15:43:32.898Z,97884.70
2022-08-17T15:48:42.884Z,97879.39
2022-08-17T15:53:51.416Z,97876.55
2022-08-17T15:58:58.432Z,97871.96
2022-08-17T16:04:26.952Z,97873.21
2022-08-17T16:09:32.285Z,97871.23
2022-08-17T16:14:38.961Z,97879.08
2022-08-17T16:19:45.888Z,97875.60
2022-08-17T16:24:57.429Z,97884.30
2022-08-17T16:30:05.009Z,97883.48
2022-08-17T16:35:14.687Z,97881.15
2022-08-17T16:40:21.709Z,97884.69
2022-08-17T16:45:37.319Z,97892.02
2022-08-17T16:51:02.013Z,97888.61
2022-08-17T16:56:10.888Z,97892.73
2022-08-17T17:01:17.745Z,97894.21
2022-08-17T17:06:29.683Z,97892.14
2022-08-17T17:11:42.218Z,97903.94
2022-08-17T17:16:53.757Z,97910.11
2022-08-17T17:22:07.766Z,97908.46
2022-08-17T17:27:19.106Z,97915.09
2022-08-17T17:32:30.008Z,97917.27
2022-08-17T17:37:37.195Z,97916.89
2022-08-17T17:42:45.376Z,97924.23
2022-08-17T17:47:52.421Z,97927.29
2022-08-17T17:53:02.558Z,97942.60
2022-08-17T17:58:18.646Z,97945.62
2022-08-17T18:03:51.226Z,97949.25
2022-08-17T18:09:06.333Z,97955.00
2022-08-17T18:14:19.078Z,97955.71
2022-08-17T18:19:27.087Z,97961.79
2022-08-17T18:24:35.087Z,97973.25
2022-08-17T18:29:44.864Z,97973.70
2022-08-17T18:34:53.849Z,97982.48
2022-08-17T18:40:00.841Z,97987.91
2022-08-17T18:45:08.246Z,97983.25
2022-08-17T18:50:25.766Z,97982.22
2022-08-17T18:55:32.939Z,97986.85
2022-08-17T19:00:41.707Z,97990.44
2022-08-17T19:05:49.459Z,97989.52
2022-08-17T19:10:57.551Z,97997.89
2022-08-17T19:16:14.010Z,98001.60
2022-08-17T19:21:23.488Z,98002.25
2022-08-17T19:26:50.721Z,98008.23
2022-08-17T19:32:02.067Z,98015.80
2022-08-17T19:37:13.247Z,98018.51
2022-08-17T19:42:27.047Z,98011.98
2022-08-17T19:47:54.403Z,98015.56
2022-08-17T19:53:07.966Z,98024.08
2022-08-17T19:58:21.550Z,98026.45
2022-08-17T20:03:34.557Z,98028.35
2022-08-17T20:08:42.697Z,98022.23
2022-08-17T20:13:54.626Z,98017.89
2022-08-17T20:19:02.668Z,98011.55
2022-08-17T20:24:18.549Z,98008.32
2022-08-17T20:29:37.746Z,98010.75
2022-08-17T20:34:49.294Z,98024.48
2022-08-17T20:40:09.696Z,98011.16
2022-08-17T20:45:33.506Z,98005.80
2022-08-17T20:50:44.051Z,97992.83
2022-08-17T20:55:56.197Z,98000.99
2022-08-17T21:01:13.573Z,98002.09
2022-08-17T21:06:21.359Z,98000.43
2022-08-17T21:11:57.372Z,98006.17
2022-08-17T21:17:38.667Z,98007.30
2022-08-17T21:22:52.971Z,98009.66
2022-08-17T21:28:03.767Z,98017.23
2022-08-17T21:33:20.125Z,98016.69
2022-08-17T21:38:36.298Z,98024.83
2022-08-17T21:43:48.338Z,98017.89
2022-08-17T21:48:57.656Z,98014.65
2022-08-17T21:54:06.357Z,98007.23
2022-08-17T21:59:22.147Z,97999.38
2022-08-17T22:04:29.787Z,97989.27
2022-08-17T22:09:37.867Z,97983.97
2022-08-17T22:14:53.066Z,97980.85
2022-08-17T22:20:02.427Z,97982.65
2022-08-17T22:25:21.427Z,97987.64
2022-08-17T22:30:33.269Z,97980.59
2022-08-17T22:35:40.993Z,97979.67
2022-08-17T22:40:50.095Z,97968.30
2022-08-17T22:45:57.517Z,97959.31
2022-08-17T22:51:12.340Z,97951.05
2022-08-17T22:56:40.957Z,97956.29
2022-08-17T23:02:08.126Z,97961.16
2022-08-17T23:07:14.986Z,97973.60
2022-08-17T23:12:24.895Z,97982.30
2022-08-17T23:17:37.115Z,97991.14
2022-08-17T23:22:52.419Z,98002.19
2022-08-17T23:28:01.949Z,98005.78
2022-08-17T23:33:09.554Z,98010.23
2022-08-17T23:38:16.307Z,98010.52
2022-08-17T23:43:27.541Z,98014.66
2022-08-17T23:48:37.361Z,98018.25
2022-08-17T23:53:46.577Z,98018.94
2022-08-17T23:58:54.073Z,98021.59
